Time;durP1;ratioP1;P1;durP2;ratioP2;P2;SDS_P1;SDS_P2;PMS_P1;PMS_P2;Temp;Humidity;BMP_temperature;BMP_pressure;BME280_temperature;BME280_humidity;BME280_pressure;Samples;Min_cycle;Max_cycle;Signal;HPM_P1;HPM_P2
2021/04/08 00:01:23;;;;;;;2.17;1.38;;;5.80;80.60;;;;;;4811360;29;20045;-74
2021/04/08 00:03:51;;;;;;;3.17;1.60;;;5.70;80.50;;;;;;4816715;29;20513;-75
2021/04/08 00:06:19;;;;;;;3.03;1.30;;;5.60;80.60;;;;;;4814974;29;20055;-75
2021/04/08 00:08:47;;;;;;;3.47;1.48;;;5.70;80.30;;;;;;4815068;29;20305;-76
2021/04/08 00:11:14;;;;;;;2.35;1.30;;;5.70;80.20;;;;;;4812402;29;20062;-76
2021/04/08 00:13:42;;;;;;;4.70;1.55;;;5.50;80.90;;;;;;4813431;29;20133;-76
2021/04/08 00:16:10;;;;;;;2.70;1.50;;;5.30;81.20;;;;;;4816173;29;20050;-76
2021/04/08 00:18:38;;;;;;;3.25;1.52;;;5.20;81.60;;;;;;4812649;29;20119;-76
2021/04/08 00:21:07;;;;;;;3.08;1.60;;;5.20;81.70;;;;;;4832923;29;20148;-76
2021/04/08 00:23:34;;;;;;;2.67;1.40;;;5.20;81.90;;;;;;4837833;29;20069;-76
2021/04/08 00:26:02;;;;;;;2.38;1.35;;;5.30;81.90;;;;;;4851538;29;20037;-75
2021/04/08 00:28:30;;;;;;;4.22;2.40;;;5.10;82.20;;;;;;4831911;29;20049;-76
2021/04/08 00:30:58;;;;;;;4.68;2.83;;;5.00;82.90;;;;;;4850405;29;20048;-75
2021/04/08 00:33:25;;;;;;;4.57;2.75;;;5.00;83.20;;;;;;4836754;29;20053;-76
2021/04/08 00:35:53;;;;;;;4.90;2.90;;;5.00;83.40;;;;;;4845911;29;20044;-76
2021/04/08 00:38:22;;;;;;;4.57;2.80;;;5.10;83.60;;;;;;4831947;29;20053;-76
2021/04/08 00:40:49;;;;;;;7.47;3.40;;;5.00;83.80;;;;;;4847856;29;20041;-76
2021/04/08 00:43:17;;;;;;;8.30;2.88;;;5.00;83.90;;;;;;4837154;29;20050;-76
2021/04/08 00:45:45;;;;;;;7.15;3.13;;;5.00;83.90;;;;;;4822902;29;20390;-76
2021/04/08 00:48:12;;;;;;;6.05;3.00;;;5.00;84.00;;;;;;4846393;29;20056;-76
2021/04/08 00:50:40;;;;;;;6.40;2.85;;;5.00;83.90;;;;;;4848744;29;20077;-76
2021/04/08 00:53:13;;;;;;;5.38;2.90;;;5.00;84.00;;;;;;4834599;29;20046;-75
2021/04/08 00:55:43;;;;;;;6.05;3.00;;;4.90;84.10;;;;;;4834950;29;20052;-75
2021/04/08 00:58:13;;;;;;;5.03;2.80;;;4.80;84.20;;;;;;4832189;29;20504;-76
2021/04/08 01:00:43;;;;;;;5.13;2.80;;;4.80;84.50;;;;;;4836596;29;20473;-75
2021/04/08 01:03:11;;;;;;;5.22;3.22;;;4.80;84.40;;;;;;4847432;29;20518;-75
2021/04/08 01:05:38;;;;;;;4.35;2.70;;;4.80;84.40;;;;;;4845943;29;20052;-76
2021/04/08 01:08:07;;;;;;;5.18;2.85;;;4.80;84.20;;;;;;4836148;29;20068;-75
2021/04/08 01:10:35;;;;;;;6.70;2.97;;;4.80;84.30;;;;;;4851721;29;20045;-76
2021/04/08 01:13:07;;;;;;;7.38;2.97;;;4.80;84.40;;;;;;4832321;29;20808;-75
2021/04/08 01:15:36;;;;;;;4.28;2.40;;;4.80;84.50;;;;;;4848521;29;20076;-75
2021/04/08 01:18:10;;;;;;;4.47;2.65;;;4.70;84.30;;;;;;4833976;29;20053;-75
2021/04/08 01:20:52;;;;;;;6.00;2.17;;;4.60;84.60;;;;;;4848969;29;20068;-75
2021/04/08 01:23:50;;;;;;;4.30;2.25;;;4.60;84.60;;;;;;4847042;29;20053;-76
2021/04/08 01:26:52;;;;;;;7.18;2.45;;;4.70;84.30;;;;;;4851657;29;20054;-76
2021/04/08 01:29:36;;;;;;;4.03;2.10;;;4.70;84.20;;;;;;4835355;29;20536;-76
2021/04/08 01:32:07;;;;;;;3.60;1.83;;;4.80;83.80;;;;;;4833475;29;20063;-75
2021/04/08 01:34:39;;;;;;;4.65;1.92;;;4.80;83.80;;;;;;4837665;29;20101;-75
2021/04/08 01:37:10;;;;;;;3.92;1.60;;;4.70;83.70;;;;;;4845252;29;20029;-75
2021/04/08 01:39:41;;;;;;;3.58;1.20;;;4.70;83.40;;;;;;4835844;29;20049;-75
2021/04/08 01:42:10;;;;;;;1.05;0.80;;;4.70;83.30;;;;;;4830409;29;20046;-76
2021/04/08 01:44:39;;;;;;;2.05;1.17;;;4.70;82.80;;;;;;4847905;29;20045;-75
2021/04/08 01:47:11;;;;;;;2.90;1.48;;;4.50;82.70;;;;;;4839317;29;20053;-76
2021/04/08 01:49:43;;;;;;;2.53;1.35;;;4.40;83.20;;;;;;4833914;29;20515;-75
2021/04/08 01:52:15;;;;;;;4.72;1.45;;;4.40;83.40;;;;;;4846027;29;20081;-75
2021/04/08 01:54:46;;;;;;;2.00;1.13;;;4.40;83.20;;;;;;4844118;29;20056;-76
2021/04/08 01:57:15;;;;;;;3.10;1.45;;;4.40;83.50;;;;;;4835910;29;20045;-75
2021/04/08 01:59:44;;;;;;;3.10;2.08;;;4.40;83.30;;;;;;4817490;29;20053;-75
2021/04/08 02:02:13;;;;;;;4.18;2.30;;;4.50;83.30;;;;;;4848559;29;20156;-75
2021/04/08 02:04:44;;;;;;;3.80;1.95;;;4.50;83.20;;;;;;4847988;29;20084;-75
2021/04/08 02:07:13;;;;;;;4.07;1.75;;;4.30;83.40;;;;;;4848745;29;20049;-75
2021/04/08 02:09:41;;;;;;;4.60;1.70;;;4.30;83.50;;;;;;4844712;29;20061;-76
2021/04/08 02:12:12;;;;;;;3.28;1.73;;;4.20;83.80;;;;;;4848335;29;20137;-76
2021/04/08 02:14:41;;;;;;;2.83;1.20;;;4.20;83.90;;;;;;4845644;29;20048;-75
2021/04/08 02:17:10;;;;;;;2.88;1.40;;;4.20;84.00;;;;;;4828553;29;20049;-76
2021/04/08 02:19:43;;;;;;;3.75;1.67;;;4.20;83.80;;;;;;4827335;29;20221;-76
2021/04/08 02:22:11;;;;;;;2.03;1.40;;;4.10;84.10;;;;;;4834013;29;20442;-75
2021/04/08 02:24:40;;;;;;;2.53;1.52;;;4.00;84.20;;;;;;4842754;29;20045;-75
2021/04/08 02:27:10;;;;;;;2.60;1.40;;;4.10;84.00;;;;;;4823374;29;20053;-75
2021/04/08 02:29:40;;;;;;;2.72;1.65;;;4.10;84.10;;;;;;4830834;29;20046;-76
2021/04/08 02:32:08;;;;;;;2.47;1.42;;;4.10;83.80;;;;;;4847788;29;20065;-75
2021/04/08 02:34:37;;;;;;;2.72;1.58;;;3.90;84.10;;;;;;4840056;29;20510;-76
2021/04/08 02:37:07;;;;;;;6.53;1.80;;;3.90;84.50;;;;;;4830646;29;20057;-76
2021/04/08 02:39:35;;;;;;;3.20;1.60;;;4.00;84.70;;;;;;4834711;29;20045;-76
2021/04/08 02:42:03;;;;;;;3.05;1.50;;;4.10;84.30;;;;;;4846827;29;20038;-76
2021/04/08 02:44:31;;;;;;;2.75;1.70;;;3.90;84.40;;;;;;4846759;29;20037;-77
2021/04/08 02:46:59;;;;;;;2.58;1.50;;;3.80;84.70;;;;;;4848746;29;20077;-75
2021/04/08 02:49:27;;;;;;;3.53;1.63;;;3.80;85.20;;;;;;4828135;29;20064;-76
2021/04/08 02:52:00;;;;;;;2.83;1.38;;;3.80;85.30;;;;;;4852385;29;20598;-76
2021/04/08 02:54:36;;;;;;;3.60;1.80;;;3.90;85.20;;;;;;4835301;29;20160;-75
2021/04/08 02:57:05;;;;;;;3.93;2.00;;;3.90;85.20;;;;;;4845384;29;20057;-75
2021/04/08 02:59:41;;;;;;;3.53;2.33;;;4.00;85.50;;;;;;4847585;29;20337;-76
2021/04/08 03:02:11;;;;;;;4.23;2.17;;;3.90;85.60;;;;;;4852725;29;20057;-75
2021/04/08 03:04:46;;;;;;;5.03;2.25;;;3.90;86.00;;;;;;4849306;29;20536;-76
2021/04/08 03:07:18;;;;;;;3.55;2.30;;;3.80;86.20;;;;;;4834637;29;20077;-76
2021/04/08 03:09:48;;;;;;;4.20;2.25;;;3.90;86.10;;;;;;4821367;29;20156;-76
2021/04/08 03:12:18;;;;;;;3.78;2.25;;;3.90;86.00;;;;;;4851803;29;20100;-76
2021/04/08 03:14:49;;;;;;;4.53;2.50;;;3.90;85.80;;;;;;4853698;29;20100;-76
2021/04/08 03:17:19;;;;;;;4.57;1.95;;;3.90;86.00;;;;;;4834502;29;20057;-76
2021/04/08 03:19:50;;;;;;;5.55;1.88;;;4.00;85.50;;;;;;4843334;29;20073;-76
2021/04/08 03:22:35;;;;;;;3.92;2.08;;;3.80;85.70;;;;;;5110263;27;20865;-77
2021/04/08 03:25:06;;;;;;;5.85;2.00;;;3.80;86.00;;;;;;5102300;27;20056;-76
2021/04/08 03:27:36;;;;;;;3.95;1.80;;;3.60;86.00;;;;;;5094482;28;20502;-76
2021/04/08 03:30:06;;;;;;;2.72;1.63;;;3.50;86.40;;;;;;5080024;28;20552;-76
2021/04/08 03:32:34;;;;;;;5.47;2.03;;;3.40;86.60;;;;;;5095441;28;20043;-76
2021/04/08 03:35:02;;;;;;;4.10;2.00;;;3.30;86.80;;;;;;5094887;28;20492;-76
2021/04/08 03:37:30;;;;;;;3.25;1.75;;;3.30;86.70;;;;;;5080780;28;20040;-76
2021/04/08 03:40:00;;;;;;;3.70;1.70;;;3.30;86.60;;;;;;5084186;28;20048;-76
2021/04/08 03:42:29;;;;;;;4.88;1.50;;;3.30;86.50;;;;;;5079356;28;20579;-76
2021/04/08 03:44:57;;;;;;;3.75;1.67;;;3.30;86.30;;;;;;5091501;28;20036;-76
2021/04/08 03:47:26;;;;;;;4.60;1.63;;;3.20;86.50;;;;;;5092848;28;20142;-76
2021/04/08 03:49:55;;;;;;;3.55;1.85;;;3.30;86.40;;;;;;5094086;28;20035;-76
2021/04/08 03:52:23;;;;;;;3.72;1.70;;;3.40;86.20;;;;;;5099061;28;20054;-76
2021/04/08 03:54:52;;;;;;;3.63;1.73;;;3.40;85.90;;;;;;5096048;28;20032;-75
2021/04/08 03:57:24;;;;;;;4.97;1.80;;;3.40;85.90;;;;;;5096475;28;20050;-76
2021/04/08 03:59:53;;;;;;;2.83;1.58;;;3.40;85.60;;;;;;5077320;28;20039;-76
2021/04/08 04:02:21;;;;;;;2.67;1.83;;;3.20;86.00;;;;;;5094780;28;20055;-76
2021/04/08 04:04:50;;;;;;;3.08;2.05;;;3.40;86.10;;;;;;5095066;28;20405;-76
2021/04/08 04:07:19;;;;;;;4.25;2.20;;;3.40;85.60;;;;;;5097592;28;20047;-76
2021/04/08 04:09:48;;;;;;;8.15;2.80;;;3.40;85.90;;;;;;5094302;28;20042;-76
2021/04/08 04:12:17;;;;;;;8.00;3.33;;;3.40;85.60;;;;;;5082772;28;20052;-76
2021/04/08 04:14:46;;;;;;;7.20;2.80;;;3.30;85.50;;;;;;5093732;28;20043;-76
2021/04/08 04:17:25;;;;;;;4.75;2.10;;;3.30;86.00;;;;;;5093947;28;20040;-76
2021/04/08 04:19:54;;;;;;;4.15;1.58;;;3.30;85.50;;;;;;5095045;28;20564;-76
2021/04/08 04:22:38;;;;;;;3.05;1.65;;;3.20;86.00;;;;;;5096700;28;20146;-76
2021/04/08 04:25:07;;;;;;;4.10;1.48;;;3.20;86.50;;;;;;5098068;28;20040;-76
2021/04/08 04:27:35;;;;;;;3.17;1.58;;;3.10;86.40;;;;;;5093028;28;20105;-76
2021/04/08 04:30:08;;;;;;;3.10;1.58;;;3.10;86.50;;;;;;5094971;28;20032;-76
2021/04/08 04:32:36;;;;;;;2.67;1.58;;;3.00;86.60;;;;;;5087196;28;20123;-76
2021/04/08 04:35:05;;;;;;;2.92;1.42;;;3.00;86.60;;;;;;5081947;28;20040;-76
2021/04/08 04:37:33;;;;;;;3.28;1.60;;;2.80;86.70;;;;;;5065152;28;20139;-76
2021/04/08 04:40:01;;;;;;;4.90;1.92;;;2.90;87.00;;;;;;5084268;28;20509;-76
2021/04/08 04:42:29;;;;;;;4.35;1.90;;;2.90;86.60;;;;;;5080479;28;20035;-76
2021/04/08 04:44:57;;;;;;;3.15;2.20;;;2.90;86.80;;;;;;5064990;28;20040;-76
2021/04/08 04:47:26;;;;;;;5.18;2.17;;;3.00;87.00;;;;;;5078953;28;20146;-76
2021/04/08 04:49:54;;;;;;;3.72;1.80;;;3.00;86.60;;;;;;5078133;28;20051;-76
2021/04/08 04:52:22;;;;;;;4.65;2.30;;;3.10;86.70;;;;;;5077845;28;20047;-76
2021/04/08 04:54:50;;;;;;;3.97;2.30;;;3.10;86.90;;;;;;5081785;28;20048;-76
2021/04/08 04:57:18;;;;;;;5.63;2.38;;;3.20;86.70;;;;;;5079562;28;20176;-76
2021/04/08 04:59:46;;;;;;;6.05;2.38;;;3.00;86.80;;;;;;5081401;28;20139;-76
2021/04/08 05:02:14;;;;;;;3.50;2.00;;;3.10;86.90;;;;;;5082872;28;20058;-76
2021/04/08 05:04:43;;;;;;;5.03;2.38;;;2.90;87.10;;;;;;5089864;28;20046;-75
2021/04/08 05:07:11;;;;;;;3.75;2.25;;;2.90;87.40;;;;;;5069601;28;20514;-76
2021/04/08 05:09:38;;;;;;;3.65;2.13;;;2.80;88.00;;;;;;5084350;28;20040;-76
2021/04/08 05:12:07;;;;;;;4.80;2.50;;;2.90;88.20;;;;;;5081915;28;20462;-76
2021/04/08 05:14:36;;;;;;;4.10;2.17;;;2.80;88.50;;;;;;5064708;28;20051;-77
2021/04/08 05:17:04;;;;;;;3.97;2.10;;;2.90;88.70;;;;;;5079754;28;20609;-76
2021/04/08 05:19:32;;;;;;;4.53;2.15;;;3.00;88.80;;;;;;5080843;28;20063;-76
2021/04/08 05:22:01;;;;;;;5.20;2.67;;;3.00;88.60;;;;;;5082960;28;20099;-76
2021/04/08 05:24:31;;;;;;;5.10;2.78;;;2.90;88.60;;;;;;5082535;28;20071;-77
2021/04/08 05:26:59;;;;;;;3.38;2.40;;;2.90;88.60;;;;;;5081397;28;20036;-76
2021/04/08 05:29:27;;;;;;;6.82;3.03;;;2.90;88.40;;;;;;5080624;28;20044;-76
2021/04/08 05:31:55;;;;;;;5.22;3.17;;;2.80;88.40;;;;;;5061736;28;20115;-76
2021/04/08 05:34:23;;;;;;;5.32;2.97;;;3.00;88.40;;;;;;5080204;28;20051;-76
2021/04/08 05:36:51;;;;;;;7.75;3.58;;;3.10;87.80;;;;;;5083331;28;20118;-76
2021/04/08 05:39:20;;;;;;;7.32;2.83;;;3.10;87.40;;;;;;5080076;28;20036;-76
2021/04/08 05:41:48;;;;;;;7.90;2.88;;;3.00;87.40;;;;;;5081644;28;20048;-76
2021/04/08 05:44:16;;;;;;;5.32;3.33;;;3.10;87.40;;;;;;5063870;28;20137;-76
2021/04/08 05:46:44;;;;;;;6.45;3.10;;;3.10;87.40;;;;;;5065148;28;20052;-75
2021/04/08 05:49:12;;;;;;;7.00;3.50;;;3.20;87.00;;;;;;5079826;28;20079;-75
2021/04/08 05:51:40;;;;;;;6.78;3.08;;;3.20;87.00;;;;;;5081005;28;20398;-76
2021/04/08 05:54:09;;;;;;;4.35;3.25;;;3.20;87.00;;;;;;5078988;28;20475;-76
2021/04/08 05:56:37;;;;;;;6.57;3.47;;;3.10;87.20;;;;;;5081916;28;20382;-75
2021/04/08 05:59:05;;;;;;;6.35;3.40;;;3.30;87.10;;;;;;5077655;28;20409;-75
2021/04/08 06:01:33;;;;;;;7.20;3.63;;;3.30;87.00;;;;;;5080259;28;20684;-76
2021/04/08 06:04:02;;;;;;;6.28;3.00;;;3.30;87.10;;;;;;5076671;28;20130;-76
2021/04/08 06:06:30;;;;;;;8.35;3.67;;;3.50;87.00;;;;;;5078266;28;20386;-76
2021/04/08 06:08:57;;;;;;;6.95;3.72;;;3.70;86.70;;;;;;5081304;28;20459;-76
2021/04/08 06:11:25;;;;;;;5.63;3.80;;;3.70;86.40;;;;;;5081273;28;20048;-75
2021/04/08 06:13:54;;;;;;;7.40;3.33;;;3.60;86.60;;;;;;5078534;28;20040;-76
2021/04/08 06:16:22;;;;;;;5.95;3.08;;;3.50;87.20;;;;;;5075175;28;20052;-76
2021/04/08 06:18:50;;;;;;;7.13;3.75;;;3.70;87.10;;;;;;5081415;28;20166;-75
2021/04/08 06:21:18;;;;;;;10.40;4.05;;;3.80;87.00;;;;;;5080940;28;20060;-76
2021/04/08 06:23:46;;;;;;;6.40;4.10;;;3.90;87.10;;;;;;5077477;28;20086;-76
2021/04/08 06:26:15;;;;;;;8.88;4.40;;;3.90;86.60;;;;;;5076996;28;20389;-76
2021/04/08 06:28:43;;;;;;;6.93;4.13;;;4.00;86.40;;;;;;5079012;28;20039;-76
2021/04/08 06:31:12;;;;;;;8.20;4.38;;;4.10;86.10;;;;;;5082910;28;20064;-76
2021/04/08 06:33:40;;;;;;;10.00;4.82;;;4.20;85.80;;;;;;5078941;28;20064;-76
2021/04/08 06:36:09;;;;;;;9.65;4.53;;;4.30;85.50;;;;;;5065302;28;20057;-76
2021/04/08 06:38:37;;;;;;;6.28;4.05;;;4.40;85.00;;;;;;5078625;28;20035;-76
2021/04/08 06:41:05;;;;;;;8.25;4.22;;;4.50;85.20;;;;;;5081056;28;20074;-76
2021/04/08 06:43:38;;;;;;;7.25;4.10;;;4.60;85.20;;;;;;5077716;28;20046;-76
2021/04/08 06:46:08;;;;;;;8.05;4.30;;;4.60;85.20;;;;;;5076889;28;20106;-76
2021/04/08 06:48:42;;;;;;;8.80;4.95;;;4.60;85.20;;;;;;5074846;28;20067;-77
2021/04/08 06:51:14;;;;;;;11.18;4.75;;;4.70;85.10;;;;;;5079426;28;20032;-76
2021/04/08 06:53:42;;;;;;;9.15;5.13;;;4.80;84.80;;;;;;5076108;28;20081;-76
2021/04/08 06:56:11;;;;;;;8.13;4.53;;;4.90;84.40;;;;;;5076999;28;20562;-76
2021/04/08 06:58:40;;;;;;;7.53;4.50;;;4.90;83.70;;;;;;5076916;28;20066;-77
2021/04/08 07:01:29;;;;;;;12.40;5.57;;;5.00;84.20;;;;;;5077715;28;20043;-75
2021/04/08 07:03:59;;;;;;;8.98;4.68;;;5.00;84.30;;;;;;5076557;28;20110;-76
2021/04/08 07:06:27;;;;;;;10.98;5.43;;;5.00;84.00;;;;;;5078782;28;20043;-75
2021/04/08 07:08:57;;;;;;;10.85;4.68;;;5.10;84.00;;;;;;5079714;28;20059;-75
2021/04/08 07:11:26;;;;;;;8.02;4.78;;;5.00;84.50;;;;;;5076635;28;20054;-75
2021/04/08 07:13:54;;;;;;;8.45;4.30;;;5.00;85.10;;;;;;5077131;28;20094;-75
2021/04/08 07:16:22;;;;;;;8.27;4.15;;;5.10;84.80;;;;;;5078550;28;20417;-75
2021/04/08 07:18:50;;;;;;;6.95;4.32;;;5.30;84.70;;;;;;5077010;28;20417;-77
2021/04/08 07:21:20;;;;;;;7.57;4.57;;;5.40;84.60;;;;;;5079411;28;20072;-76
2021/04/08 07:24:10;;;;;;;6.97;4.95;;;5.50;84.00;;;;;;5063611;28;20473;-76
2021/04/08 07:26:53;;;;;;;7.35;4.45;;;5.60;83.30;;;;;;5075229;28;20068;-76
2021/04/08 07:29:23;;;;;;;8.95;4.85;;;5.70;82.80;;;;;;5061180;28;20044;-76
2021/04/08 07:31:51;;;;;;;8.35;4.75;;;5.80;83.00;;;;;;5079001;28;20032;-76
2021/04/08 07:34:37;;;;;;;11.57;5.03;;;6.00;82.70;;;;;;5080986;28;20051;-77
2021/04/08 07:37:07;;;;;;;9.43;5.57;;;6.00;82.40;;;;;;5058611;28;20040;-76
2021/04/08 07:39:37;;;;;;;9.73;4.35;;;6.00;82.00;;;;;;5077443;28;20047;-77
2021/04/08 07:42:07;;;;;;;11.45;4.95;;;6.10;82.00;;;;;;5081176;28;20040;-78
2021/04/08 07:44:46;;;;;;;7.43;4.85;;;6.20;82.20;;;;;;5064367;28;20051;-78
2021/04/08 07:47:24;;;;;;;8.80;4.45;;;6.40;81.80;;;;;;5076507;28;20050;-76
2021/04/08 07:49:53;;;;;;;8.93;4.53;;;6.50;81.60;;;;;;5060195;28;20044;-76
2021/04/08 07:52:26;;;;;;;8.18;4.35;;;6.60;80.90;;;;;;5076671;28;20062;-76
2021/04/08 07:54:59;;;;;;;8.02;4.53;;;6.70;80.00;;;;;;5067962;28;20409;-75
2021/04/08 07:57:28;;;;;;;9.25;4.25;;;6.80;79.80;;;;;;5081272;28;20494;-80
2021/04/08 08:00:14;;;;;;;8.93;4.53;;;6.90;80.10;;;;;;5074285;28;20117;-76
2021/04/08 08:02:42;;;;;;;11.02;6.22;;;7.00;79.90;;;;;;5063285;28;20440;-75
2021/04/08 08:05:21;;;;;;;11.00;7.07;;;7.20;80.00;;;;;;5076708;28;20524;-77
2021/04/08 08:07:53;;;;;;;8.32;4.30;;;7.30;79.30;;;;;;5081735;28;20047;-75
2021/04/08 08:10:24;;;;;;;6.38;4.13;;;7.30;78.40;;;;;;5079595;28;20539;-75
2021/04/08 08:12:53;;;;;;;7.55;4.45;;;7.30;78.30;;;;;;5078319;28;20488;-75
2021/04/08 08:15:24;;;;;;;6.72;4.22;;;7.50;77.80;;;;;;5081445;28;20040;-76
2021/04/08 08:17:52;;;;;;;5.35;4.00;;;7.60;77.70;;;;;;5087123;28;20028;-76
2021/04/08 08:20:21;;;;;;;6.55;4.20;;;7.70;77.20;;;;;;5093611;27;20140;-77
2021/04/08 08:22:50;;;;;;;7.50;4.25;;;7.80;77.30;;;;;;5080668;28;20499;-78
2021/04/08 08:25:27;;;;;;;6.35;3.88;;;7.80;77.10;;;;;;5081497;28;20044;-78
2021/04/08 08:27:56;;;;;;;6.93;4.35;;;7.90;76.90;;;;;;5082336;28;20040;-77
2021/04/08 08:30:31;;;;;;;6.72;4.20;;;8.00;76.70;;;;;;5083467;28;20065;-77
2021/04/08 08:33:08;;;;;;;7.15;3.55;;;8.10;76.40;;;;;;5079866;28;20047;-78
2021/04/08 08:35:37;;;;;;;7.07;4.25;;;8.10;76.10;;;;;;5080207;28;20047;-79
2021/04/08 08:38:12;;;;;;;7.20;3.90;;;8.20;75.50;;;;;;5080369;28;20622;-78
2021/04/08 08:40:41;;;;;;;6.43;3.78;;;8.30;74.90;;;;;;5061620;28;20040;-79
2021/04/08 08:43:10;;;;;;;8.25;4.10;;;8.40;74.40;;;;;;5081093;28;20044;-76
2021/04/08 08:45:39;;;;;;;7.93;4.15;;;8.50;74.70;;;;;;5085269;28;20298;-76
2021/04/08 08:48:10;;;;;;;7.97;4.10;;;8.50;74.40;;;;;;5078571;28;20405;-76
2021/04/08 08:50:39;;;;;;;6.63;4.25;;;8.60;73.30;;;;;;5078512;28;20122;-78
2021/04/08 08:53:11;;;;;;;5.80;3.72;;;8.70;73.70;;;;;;5059349;28;20135;-76
2021/04/08 08:55:41;;;;;;;7.00;3.67;;;8.80;72.50;;;;;;5081705;28;20440;-77
2021/04/08 08:58:14;;;;;;;7.13;3.42;;;8.90;71.80;;;;;;5081780;28;20661;-76
2021/04/08 09:00:42;;;;;;;6.35;3.90;;;8.90;71.40;;;;;;5078586;28;20093;-80
2021/04/08 09:03:10;;;;;;;11.55;7.95;;;9.00;71.20;;;;;;5078517;28;20059;-75
2021/04/08 09:05:38;;;;;;;23.65;16.15;;;9.10;70.90;;;;;;5076299;28;20053;-76
2021/04/08 09:08:12;;;;;;;7.68;4.50;;;9.30;69.80;;;;;;5083738;28;20051;-76
2021/04/08 09:10:52;;;;;;;11.18;5.43;;;9.40;70.50;;;;;;5067840;28;20500;-77
2021/04/08 09:13:21;;;;;;;6.88;4.05;;;9.50;72.50;;;;;;5080709;28;20141;-76
2021/04/08 09:15:49;;;;;;;7.53;4.50;;;9.60;72.10;;;;;;5077498;28;20043;-78
2021/04/08 09:18:21;;;;;;;8.82;3.78;;;9.60;70.80;;;;;;5079904;28;20040;-76
2021/04/08 09:20:49;;;;;;;7.63;3.97;;;9.70;69.90;;;;;;5079409;28;20138;-75
2021/04/08 09:23:21;;;;;;;6.45;3.50;;;9.90;70.70;;;;;;5098632;27;20085;-76
2021/04/08 09:25:53;;;;;;;3.85;3.13;;;10.10;69.80;;;;;;5077781;28;20059;-75
2021/04/08 09:28:25;;;;;;;5.38;3.10;;;10.20;69.30;;;;;;5077937;28;20133;-76
2021/04/08 09:31:15;;;;;;;5.05;3.50;;;10.30;68.80;;;;;;5093369;27;20457;-76
2021/04/08 09:33:59;;;;;;;5.47;3.47;;;10.50;68.50;;;;;;5078611;28;20036;-76
2021/04/08 09:36:38;;;;;;;6.32;3.83;;;10.70;69.20;;;;;;5078493;28;20565;-77
2021/04/08 09:39:29;;;;;;;4.88;3.28;;;10.70;68.00;;;;;;5079826;28;20048;-76
2021/04/08 09:42:02;;;;;;;5.07;3.50;;;10.80;68.20;;;;;;5079964;28;20055;-76
2021/04/08 09:44:30;;;;;;;5.65;3.47;;;10.90;68.20;;;;;;5079382;28;20043;-76
2021/04/08 09:47:00;;;;;;;9.55;3.80;;;11.10;68.20;;;;;;5078924;28;20282;-78
2021/04/08 09:49:48;;;;;;;6.25;3.40;;;11.30;69.00;;;;;;5077444;28;20677;-78
2021/04/08 09:52:17;;;;;;;6.72;4.00;;;11.40;68.10;;;;;;5077486;28;20028;-77
2021/04/08 09:54:53;;;;;;;8.45;5.28;;;11.50;68.10;;;;;;5083738;28;20040;-76
2021/04/08 09:57:35;;;;;;;;;;;11.50;68.40;;;;;;5082198;28;20036;-76
2021/04/08 10:00:09;;;;;;;5.45;2.72;;;11.40;67.10;;;;;;5079261;28;19930;-77
2021/04/08 10:02:56;;;;;;;7.60;3.80;;;11.60;67.70;;;;;;5058266;28;20446;-77
2021/04/08 10:05:30;;;;;;;5.50;3.80;;;11.80;67.60;;;;;;5076956;28;20044;-77
2021/04/08 10:08:02;;;;;;;6.78;4.05;;;12.00;68.90;;;;;;5081379;28;20032;-81
2021/04/08 10:10:43;;;;;;;7.50;3.42;;;12.20;69.30;;;;;;5077169;28;20040;-81
2021/04/08 10:13:17;;;;;;;6.03;3.95;;;12.30;68.60;;;;;;5077517;28;20368;-79
2021/04/08 10:15:48;;;;;;;7.40;3.55;;;12.40;68.90;;;;;;5075318;28;20040;-82
2021/04/08 10:18:18;;;;;;;5.15;2.97;;;12.50;69.80;;;;;;5075144;28;20051;-80
2021/04/08 10:20:48;;;;;;;6.70;3.75;;;12.60;70.00;;;;;;5077464;28;20516;-81
2021/04/08 10:23:33;;;;;;;4.95;2.97;;;12.80;70.90;;;;;;5078171;28;20592;-78
2021/04/08 10:26:06;;;;;;;3.92;2.30;;;12.90;70.70;;;;;;5058290;28;20064;-79
2021/04/08 10:28:38;;;;;;;3.72;2.40;;;13.00;70.80;;;;;;5059943;28;20326;-81
2021/04/08 10:31:15;;;;;;;5.78;2.10;;;13.20;70.90;;;;;;5058044;28;20093;-80
2021/04/08 10:33:43;;;;;;;3.33;1.70;;;13.30;69.70;;;;;;5060725;28;20166;-79
2021/04/08 10:36:24;;;;;;;3.63;1.60;;;13.40;69.90;;;;;;5072741;28;20604;-81
2021/04/08 10:39:04;;;;;;;2.35;1.10;;;13.70;70.40;;;;;;5077635;28;20048;-79
2021/04/08 10:41:33;;;;;;;1.80;1.00;;;13.90;69.20;;;;;;5079300;28;20046;-77
2021/04/08 10:44:19;;;;;;;2.10;1.10;;;13.90;68.40;;;;;;5075144;28;20159;-79
2021/04/08 10:46:47;;;;;;;5.07;1.08;;;14.00;67.80;;;;;;5077435;28;20552;-77
2021/04/08 10:49:26;;;;;;;2.05;0.93;;;14.10;66.70;;;;;;5076123;28;20460;-77
2021/04/08 10:51:55;;;;;;;3.28;1.15;;;14.20;66.90;;;;;;5077551;28;20048;-77
2021/04/08 10:54:27;;;;;;;2.17;1.10;;;14.20;65.90;;;;;;5076337;28;20506;-76
2021/04/08 10:56:56;;;;;;;4.97;1.10;;;14.20;66.00;;;;;;5080416;28;20043;-77
2021/04/08 10:59:25;;;;;;;5.35;1.30;;;14.50;66.20;;;;;;5078419;28;20074;-77
2021/04/08 11:01:54;;;;;;;1.60;0.95;;;14.70;66.40;;;;;;5077577;28;20040;-76
2021/04/08 11:04:24;;;;;;;2.97;1.35;;;14.80;66.70;;;;;;5074656;28;20047;-78
2021/04/08 11:06:56;;;;;;;3.15;1.20;;;14.90;66.30;;;;;;5076385;28;20032;-80
2021/04/08 11:09:25;;;;;;;3.47;1.20;;;15.00;66.40;;;;;;5078247;28;20044;-80
2021/04/08 11:11:54;;;;;;;2.58;1.00;;;14.90;66.60;;;;;;5078301;28;20044;-81
2021/04/08 11:14:24;;;;;;;2.47;1.30;;;14.90;66.20;;;;;;5077691;28;20152;-80
2021/04/08 11:16:54;;;;;;;2.03;1.10;;;15.00;66.80;;;;;;5060334;28;20066;-80
2021/04/08 11:19:22;;;;;;;2.65;1.20;;;15.10;67.60;;;;;;5073027;28;20040;-82
2021/04/08 11:21:51;;;;;;;2.38;1.38;;;15.10;67.30;;;;;;5073231;28;20133;-82
2021/04/08 11:24:19;;;;;;;4.72;1.10;;;15.20;67.40;;;;;;5075420;28;20139;-81
2021/04/08 11:26:48;;;;;;;3.88;0.93;;;15.00;66.20;;;;;;5075654;28;20068;-78
2021/04/08 11:29:21;;;;;;;1.25;0.63;;;15.00;66.00;;;;;;5075903;28;20028;-81
2021/04/08 11:32:01;;;;;;;2.35;0.70;;;15.20;65.20;;;;;;5075850;28;20044;-79
2021/04/08 11:34:43;;;;;;;2.85;0.60;;;15.20;65.20;;;;;;5054534;28;20048;-79
2021/04/08 11:37:12;;;;;;;3.22;0.70;;;15.30;64.80;;;;;;5073908;28;20113;-81
2021/04/08 11:39:41;;;;;;;3.13;0.80;;;15.40;64.80;;;;;;5080172;28;20036;-80
2021/04/08 11:42:20;;;;;;;3.17;1.02;;;15.50;64.50;;;;;;5072780;28;20043;-80
2021/04/08 11:44:49;;;;;;;5.22;1.02;;;15.70;63.90;;;;;;5078131;28;20398;-75
2021/04/08 11:47:21;;;;;;;2.67;0.55;;;15.60;65.20;;;;;;5078179;28;20047;-78
2021/04/08 11:49:51;;;;;;;2.13;0.70;;;15.70;66.00;;;;;;5083040;28;20047;-80
2021/04/08 11:52:20;;;;;;;2.60;0.82;;;15.70;64.40;;;;;;5079884;28;20035;-79
2021/04/08 11:55:04;;;;;;;2.47;0.75;;;15.70;64.90;;;;;;5079616;28;20504;-77
2021/04/08 11:57:32;;;;;;;1.42;0.60;;;15.10;65.70;;;;;;5082851;28;20044;-77
2021/04/08 12:00:06;;;;;;;5.22;0.95;;;14.90;67.00;;;;;;5060751;28;20067;-76
2021/04/08 12:02:36;;;;;;;2.75;0.75;;;15.10;67.10;;;;;;5078350;28;20040;-79
2021/04/08 12:05:08;;;;;;;1.42;0.65;;;15.30;66.50;;;;;;5075630;28;20140;-79
2021/04/08 12:07:45;;;;;;;3.20;1.75;;;15.10;66.90;;;;;;5070359;28;20494;-79
2021/04/08 12:10:23;;;;;;;1.15;0.60;;;14.80;67.70;;;;;;5076815;28;20058;-78
2021/04/08 12:12:56;;;;;;;3.35;1.00;;;14.70;68.10;;;;;;5079754;28;20051;-77
2021/04/08 12:15:35;;;;;;;2.63;1.13;;;14.40;68.40;;;;;;5080396;28;20044;-79
2021/04/08 12:18:10;;;;;;;2.20;0.73;;;14.50;69.70;;;;;;5083503;28;20509;-79
2021/04/08 12:20:39;;;;;;;2.22;0.90;;;14.40;70.10;;;;;;5080785;28;20056;-79
2021/04/08 12:23:08;;;;;;;2.00;0.73;;;14.50;70.80;;;;;;5079774;28;20032;-79
2021/04/08 12:25:47;;;;;;;2.70;1.08;;;14.50;71.20;;;;;;5079419;28;20074;-77
2021/04/08 12:28:16;;;;;;;4.75;1.00;;;14.50;71.70;;;;;;5079301;28;20032;-80
2021/04/08 12:30:59;;;;;;;4.60;2.25;;;14.50;71.60;;;;;;5071446;28;20040;-83
2021/04/08 12:33:31;;;;;;;2.75;0.80;;;14.40;74.60;;;;;;5080180;28;20074;-82
2021/04/08 12:36:06;;;;;;;4.22;0.75;;;14.20;76.00;;;;;;5062652;28;20286;-79
2021/04/08 12:38:35;;;;;;;1.60;0.43;;;14.00;76.20;;;;;;5080528;28;20039;-79
2021/04/08 12:41:04;;;;;;;1.75;0.50;;;13.90;76.00;;;;;;5080072;28;20050;-79
2021/04/08 12:43:32;;;;;;;3.90;0.68;;;13.80;75.50;;;;;;5077505;28;20093;-77
2021/04/08 12:46:01;;;;;;;2.58;1.00;;;13.80;75.50;;;;;;5080070;28;20036;-77
2021/04/08 12:48:30;;;;;;;3.63;0.85;;;13.70;75.50;;;;;;5081318;28;20125;-77
2021/04/08 12:50:58;;;;;;;3.10;0.60;;;13.60;75.80;;;;;;5082995;28;20119;-76
2021/04/08 12:53:26;;;;;;;7.07;1.30;;;13.50;75.50;;;;;;5080370;28;20051;-77
2021/04/08 12:55:55;;;;;;;5.13;1.08;;;13.50;76.30;;;;;;5082986;28;20068;-77
2021/04/08 12:58:24;;;;;;;1.48;0.80;;;13.60;76.20;;;;;;5082185;28;20101;-81
2021/04/08 13:09:23;;;;;;;4.28;0.73;;;13.50;74.20;;;;;;5111975;23;20161;-75
2021/04/08 13:12:04;;;;;;;4.80;0.70;;;13.60;75.10;;;;;;4961955;28;20065;-84
2021/04/08 13:14:35;;;;;;;3.90;0.90;;;13.60;75.30;;;;;;4979482;28;20513;-75
2021/04/08 13:17:04;;;;;;;3.92;0.75;;;13.70;75.40;;;;;;4963336;28;20166;-76
2021/04/08 13:23:36;;;;;;;4.93;0.90;;;13.90;74.50;;;;;;4962042;28;20053;-80
2021/04/08 13:26:17;;;;;;;4.70;1.77;;;14.10;74.30;;;;;;4982924;28;20710;-76